Riviere-A-Pierre, Canada
Current Conditions -  °F | °C
As of 3:32 PM on Friday 28 Nov 2014 (Local Time) from CYOY Reporting Station
Light Snow Light Snow  
Wind Chill: 15°   Ceiling: 1000
Heat Index: 21°   Visibility: 1.2mi
Dew Point: 19°   Wind: 5mph
Humidity: 93%   Direction: 230°SW
Pressure: 30.01"   Gusts: NA
Location:  46.98°N, 72.18°W
Report Text: CYOY 282032Z AUTO 23004KT 1 1/4SM -SN OVC010 M06/M07 A3001
Loading
Personal Weather Stations






























Interactive Weather Map New forecast layout! Learn more

10-Day Weather Forecast

Advertisements
Track Severe Weather on mobile